Terminal Aerodrome Forecast
Issued by NWS Northern Indiana

Home | Current Version | Previous Version | Graphics & Text | Print | Product List | Glossary On
Versions: 1 2 3 4 5 6 7 8 9 10 11 12 13 14 15 16
000
FTUS43 KIWX 261723
TAFFWA
TAF
KFWA 261723Z 2618/2718 25008KT P6SM BKN250
     FM270000 14008KT P6SM VCTS OVC060CB
     FM270400 14008KT 6SM -SHRA OVC015
     FM270900 35005KT 4SM BR VCSH BKN008
     FM271500 04006KT P6SM BKN020=

USA.gov is the U.S. government's official web portal to all federal, state and local government web resources and services.